createdAt,value
2023-04-06T00:01:03.075Z,9.57
2023-04-06T00:03:29.816Z,10.70
2023-04-06T00:05:56.687Z,9.85
2023-04-06T00:08:24.490Z,9.93
2023-04-06T00:10:51.154Z,9.30
2023-04-06T00:13:17.890Z,9.55
2023-04-06T00:15:44.642Z,10.18
2023-04-06T00:18:11.479Z,10.23
2023-04-06T00:20:38.197Z,9.38
2023-04-06T00:23:05.553Z,10.18
2023-04-06T00:25:32.590Z,9.30
2023-04-06T00:27:59.656Z,9.70
2023-04-06T00:30:26.681Z,9.50
2023-04-06T00:32:53.751Z,8.95
2023-04-06T00:35:20.878Z,8.18
2023-04-06T00:37:49.141Z,8.38
2023-04-06T00:40:16.615Z,8.50
2023-04-06T00:42:43.470Z,7.90
2023-04-06T00:45:11.003Z,8.88
2023-04-06T00:47:38.094Z,9.20
2023-04-06T00:50:05.354Z,9.63
2023-04-06T00:52:32.377Z,9.45
2023-04-06T00:54:59.399Z,10.40
2023-04-06T00:57:26.456Z,10.48
2023-04-06T00:59:53.917Z,9.63
2023-04-06T01:02:21.297Z,8.93
2023-04-06T01:04:48.439Z,9.63
2023-04-06T01:07:15.519Z,9.98
2023-04-06T01:09:42.961Z,10.20
2023-04-06T01:12:10.126Z,9.43
2023-04-06T01:14:37.414Z,9.15
2023-04-06T01:17:04.530Z,8.75
2023-04-06T01:19:31.872Z,8.15
2023-04-06T01:21:59.011Z,9.40
2023-04-06T01:24:26.291Z,8.95
2023-04-06T01:26:53.315Z,8.18
2023-04-06T01:29:20.661Z,7.47
2023-04-06T01:31:47.848Z,8.27
2023-04-06T01:34:15.013Z,7.88
2023-04-06T01:36:42.228Z,7.68
2023-04-06T01:39:09.440Z,8.75
2023-04-06T01:41:36.715Z,8.15
2023-04-06T01:44:04.046Z,7.82
2023-04-06T01:46:31.281Z,8.80
2023-04-06T01:48:58.321Z,9.73
2023-04-06T01:51:26.704Z,8.63
2023-04-06T01:53:53.832Z,8.35
2023-04-06T01:56:21.109Z,8.18
2023-04-06T01:58:48.224Z,9.77
2023-04-06T02:01:15.584Z,8.38
2023-04-06T02:03:42.831Z,8.55
2023-04-06T02:06:09.913Z,8.20
2023-04-06T02:08:37.085Z,8.00
2023-04-06T02:11:04.167Z,6.75
2023-04-06T02:13:31.299Z,8.23
2023-04-06T02:15:58.353Z,7.32
2023-04-06T02:18:25.412Z,7.20
2023-04-06T02:20:52.531Z,8.10
2023-04-06T02:23:19.645Z,8.43
2023-04-06T02:25:46.941Z,6.85
2023-04-06T02:28:13.978Z,7.63
2023-04-06T02:30:41.082Z,8.57
2023-04-06T02:33:08.156Z,8.50
2023-04-06T02:35:35.508Z,8.05
2023-04-06T02:38:02.606Z,8.40
2023-04-06T02:40:29.749Z,8.00
2023-04-06T02:42:56.803Z,7.95
2023-04-06T02:45:23.948Z,8.25
2023-04-06T02:47:51.410Z,8.05
2023-04-06T02:50:18.528Z,7.68
2023-04-06T02:52:45.589Z,8.10
2023-04-06T02:55:12.672Z,8.65
2023-04-06T02:57:39.813Z,8.27
2023-04-06T03:00:07.674Z,8.98
2023-04-06T03:02:34.807Z,9.43
2023-04-06T03:05:02.352Z,8.98
2023-04-06T03:07:29.407Z,8.23
2023-04-06T03:09:56.526Z,9.05
2023-04-06T03:12:23.601Z,7.75
2023-04-06T03:14:50.676Z,8.70
2023-04-06T03:17:17.690Z,8.15
2023-04-06T03:19:44.759Z,7.85
2023-04-06T03:22:11.813Z,8.63
2023-04-06T03:24:38.854Z,8.13
2023-04-06T03:27:07.167Z,8.35
2023-04-06T03:29:34.232Z,9.60
2023-04-06T03:32:01.378Z,9.05
2023-04-06T03:34:28.425Z,8.88
2023-04-06T03:37:07.143Z,8.27
2023-04-06T03:39:37.185Z,9.25
2023-04-06T03:42:04.310Z,8.52
2023-04-06T03:44:31.320Z,9.07
2023-04-06T03:46:58.361Z,9.20
2023-04-06T03:49:25.445Z,9.35
2023-04-06T03:51:52.578Z,9.63
2023-04-06T03:54:19.615Z,9.25
2023-04-06T03:56:46.643Z,9.55
2023-04-06T03:59:13.679Z,9.73
2023-04-06T04:01:41.122Z,9.70
2023-04-06T04:04:08.214Z,9.88
2023-04-06T04:06:37.338Z,10.07
2023-04-06T04:09:04.470Z,8.68
2023-04-06T04:11:31.558Z,9.48
2023-04-06T04:13:58.589Z,10.55
2023-04-06T04:16:25.668Z,9.52
2023-04-06T04:18:52.842Z,9.95
2023-04-06T04:21:19.900Z,8.88
2023-04-06T04:23:46.928Z,10.20
2023-04-06T04:26:13.970Z,10.75
2023-04-06T04:28:41.105Z,9.68
2023-04-06T04:31:08.172Z,10.32
2023-04-06T04:33:35.705Z,9.98
2023-04-06T04:36:02.808Z,10.60
2023-04-06T04:38:30.337Z,9.52
2023-04-06T04:40:57.557Z,10.27
2023-04-06T04:43:24.677Z,9.38
2023-04-06T04:45:51.796Z,9.48
2023-04-06T04:48:18.825Z,10.55
2023-04-06T04:50:46.074Z,9.80
2023-04-06T04:53:13.119Z,10.30
2023-04-06T04:55:40.158Z,9.70
2023-04-06T04:58:07.281Z,9.85
2023-04-06T05:00:34.312Z,10.07
2023-04-06T05:03:01.453Z,10.32
2023-04-06T05:05:28.557Z,9.68
2023-04-06T05:07:55.592Z,10.50
2023-04-06T05:10:22.677Z,9.52
2023-04-06T05:12:49.835Z,10.00
2023-04-06T05:15:16.921Z,8.98
2023-04-06T05:17:44.157Z,10.10
2023-04-06T05:20:11.560Z,10.27
2023-04-06T05:22:38.644Z,9.65
2023-04-06T05:25:05.871Z,9.50
2023-04-06T05:27:33.018Z,9.50
2023-04-06T05:30:00.120Z,9.73
2023-04-06T05:32:27.311Z,8.35
2023-04-06T05:34:54.488Z,10.13
2023-04-06T05:37:21.873Z,9.20
2023-04-06T05:39:48.886Z,9.90
2023-04-06T05:42:16.682Z,10.25
2023-04-06T05:44:43.697Z,10.13
2023-04-06T05:47:10.915Z,10.23
2023-04-06T05:49:37.957Z,9.77
2023-04-06T05:52:05.270Z,10.13
2023-04-06T05:54:32.376Z,9.50
2023-04-06T05:56:59.394Z,10.25
2023-04-06T05:59:26.480Z,9.50
2023-04-06T06:01:53.650Z,10.13
2023-04-06T06:04:20.831Z,10.10
2023-04-06T06:06:47.880Z,10.00
2023-04-06T06:09:15.485Z,10.80
2023-04-06T06:11:43.015Z,9.45
2023-04-06T06:14:09.668Z,9.88
2023-04-06T06:16:36.641Z,10.05
2023-04-06T06:19:03.304Z,9.63
2023-04-06T06:21:29.997Z,8.63
2023-04-06T06:23:57.048Z,10.15
2023-04-06T06:26:24.072Z,9.55
2023-04-06T06:28:51.111Z,9.10
2023-04-06T06:31:19.408Z,9.48
2023-04-06T06:33:46.494Z,8.85
2023-04-06T06:36:13.503Z,10.23
2023-04-06T06:38:40.548Z,9.10
2023-04-06T06:41:07.630Z,8.73
2023-04-06T06:43:34.701Z,8.32
2023-04-06T06:46:01.847Z,10.07
2023-04-06T06:48:29.064Z,8.98
2023-04-06T06:50:56.242Z,9.65
2023-04-06T06:53:23.395Z,9.05
2023-04-06T06:55:50.566Z,8.85
2023-04-06T06:58:20.408Z,9.93
2023-04-06T07:00:47.799Z,8.73
2023-04-06T07:03:15.159Z,9.73
2023-04-06T07:05:53.676Z,9.77
2023-04-06T07:08:24.553Z,9.35
2023-04-06T07:10:53.436Z,10.27
2023-04-06T07:13:24.830Z,10.45
2023-04-06T07:15:52.333Z,9.70
2023-04-06T07:18:20.667Z,9.50
2023-04-06T07:20:47.756Z,9.60
2023-04-06T07:23:14.877Z,9.40
2023-04-06T07:25:42.066Z,10.05
2023-04-06T07:28:09.122Z,9.82
2023-04-06T07:30:37.076Z,10.18
2023-04-06T07:33:04.351Z,10.32
2023-04-06T07:35:31.581Z,9.75
2023-04-06T07:37:58.913Z,8.60
2023-04-06T07:40:27.102Z,10.55
2023-04-06T07:42:56.202Z,10.43
2023-04-06T07:45:24.505Z,10.77
2023-04-06T07:47:51.689Z,10.45
2023-04-06T07:50:18.772Z,10.23
2023-04-06T07:52:45.883Z,8.90
2023-04-06T07:55:13.001Z,9.43
2023-04-06T07:57:40.029Z,10.30
2023-04-06T08:00:07.563Z,9.10
2023-04-06T08:02:34.826Z,8.57
2023-04-06T08:05:02.218Z,10.20
2023-04-06T08:07:29.277Z,9.52
2023-04-06T08:09:56.356Z,9.18
2023-04-06T08:12:23.442Z,8.98
2023-04-06T08:14:50.637Z,8.15
2023-04-06T08:17:17.785Z,8.60
2023-04-06T08:19:45.349Z,9.15
2023-04-06T08:22:12.942Z,8.40
2023-04-06T08:24:39.743Z,9.27
2023-04-06T08:27:06.480Z,9.38
2023-04-06T08:29:33.114Z,8.95
2023-04-06T08:31:59.982Z,9.55
2023-04-06T08:34:26.697Z,8.88
2023-04-06T08:36:53.333Z,9.43
2023-04-06T08:39:26.166Z,9.88
2023-04-06T08:41:53.861Z,9.00
2023-04-06T08:44:20.839Z,9.63
2023-04-06T08:46:47.621Z,9.75
2023-04-06T08:49:16.997Z,9.27
2023-04-06T08:51:43.865Z,9.38
2023-04-06T08:54:10.955Z,8.75
2023-04-06T08:56:41.052Z,8.68
2023-04-06T08:59:08.850Z,9.13
2023-04-06T09:01:42.015Z,9.73
2023-04-06T09:04:12.392Z,9.63
2023-04-06T09:06:41.675Z,8.50
2023-04-06T09:09:09.061Z,9.13
2023-04-06T09:11:49.826Z,8.70
2023-04-06T09:14:17.574Z,8.77
2023-04-06T09:16:46.208Z,8.80
2023-04-06T09:19:13.584Z,9.25
2023-04-06T09:21:41.073Z,9.60
2023-04-06T09:24:08.990Z,9.43
2023-04-06T09:26:48.825Z,8.68
2023-04-06T09:29:27.508Z,8.52
2023-04-06T09:32:06.375Z,9.35
2023-04-06T09:34:33.803Z,9.10
2023-04-06T09:37:00.712Z,8.95
2023-04-06T09:39:27.482Z,9.48
2023-04-06T09:41:55.257Z,8.60
2023-04-06T09:44:22.195Z,9.20
2023-04-06T09:46:58.740Z,8.82
2023-04-06T09:49:28.532Z,9.00
2023-04-06T09:51:59.367Z,9.57
2023-04-06T09:54:30.475Z,9.13
2023-04-06T09:57:25.731Z,9.10
2023-04-06T10:00:10.290Z,9.02
2023-04-06T10:03:09.634Z,9.43
2023-04-06T10:05:59.665Z,9.60
2023-04-06T10:08:31.814Z,9.88
2023-04-06T10:11:00.172Z,10.15
2023-04-06T10:13:26.921Z,10.30
2023-04-06T10:15:53.985Z,9.40
2023-04-06T10:18:21.635Z,9.77
2023-04-06T10:20:55.879Z,8.75
2023-04-06T10:23:28.921Z,9.02
2023-04-06T10:25:56.805Z,9.90
2023-04-06T10:28:24.190Z,10.30
2023-04-06T10:30:57.277Z,10.25
2023-04-06T10:33:23.971Z,10.37
2023-04-06T10:35:50.796Z,10.75
2023-04-06T10:38:21.943Z,10.27
2023-04-06T10:40:49.331Z,10.00
2023-04-06T10:43:23.799Z,10.32
2023-04-06T10:45:57.705Z,9.88
2023-04-06T10:50:53.140Z,10.05
2023-04-06T10:53:24.421Z,9.68
2023-04-06T10:55:52.092Z,9.73
2023-04-06T10:58:19.554Z,9.82
2023-04-06T11:00:50.271Z,9.32
2023-04-06T11:03:18.199Z,8.27
2023-04-06T11:05:48.614Z,9.63
2023-04-06T11:08:47.824Z,9.05
2023-04-06T11:11:16.945Z,9.20
2023-04-06T11:13:47.902Z,8.98
2023-04-06T11:16:17.194Z,8.98
2023-04-06T11:18:50.151Z,9.23
2023-04-06T11:21:17.556Z,9.02
2023-04-06T11:23:44.641Z,9.32
2023-04-06T11:26:12.777Z,8.82
2023-04-06T11:28:40.522Z,9.30
2023-04-06T11:31:08.124Z,8.27
2023-04-06T11:33:39.380Z,8.20
2023-04-06T11:36:07.306Z,8.35
2023-04-06T11:38:35.184Z,8.85
2023-04-06T11:41:03.489Z,9.13
2023-04-06T11:43:31.937Z,10.13
2023-04-06T11:46:03.403Z,10.00
2023-04-06T11:48:31.086Z,8.48
2023-04-06T11:50:59.723Z,9.65
2023-04-06T11:53:26.887Z,9.02
2023-04-06T11:55:53.593Z,8.65
2023-04-06T11:58:20.323Z,8.05
2023-04-06T12:00:47.879Z,7.60
2023-04-06T12:03:15.481Z,7.10
2023-04-06T12:05:42.585Z,7.05
2023-04-06T12:08:09.660Z,7.20
2023-04-06T12:10:36.533Z,6.80
2023-04-06T12:13:03.371Z,7.07
2023-04-06T12:15:30.199Z,7.05
2023-04-06T12:17:56.911Z,6.78
2023-04-06T12:20:26.954Z,6.95
2023-04-06T12:22:54.050Z,7.03
2023-04-06T12:25:20.900Z,7.22
2023-04-06T12:27:48.083Z,7.45
2023-04-06T12:30:15.244Z,7.45
2023-04-06T12:32:42.388Z,7.88
2023-04-06T12:35:10.440Z,6.82
2023-04-06T12:37:37.784Z,7.07
2023-04-06T12:40:05.129Z,6.72
2023-04-06T12:42:32.237Z,7.43
2023-04-06T12:44:59.332Z,7.53
2023-04-06T12:47:27.509Z,8.05
2023-04-06T12:49:55.771Z,7.68
2023-04-06T12:52:22.843Z,7.43
2023-04-06T12:54:51.292Z,6.90
2023-04-06T12:57:18.565Z,7.32
2023-04-06T12:59:46.123Z,8.77
2023-04-06T13:02:13.338Z,8.60
2023-04-06T13:04:40.442Z,7.88
2023-04-06T13:07:07.609Z,7.85
2023-04-06T13:09:34.297Z,7.05
2023-04-06T13:12:01.893Z,7.25
2023-04-06T13:14:28.497Z,7.57
2023-04-06T13:16:55.825Z,7.30
2023-04-06T13:19:22.617Z,7.93
2023-04-06T13:21:49.453Z,7.47
2023-04-06T13:24:17.227Z,7.22
2023-04-06T13:26:44.518Z,7.65
2023-04-06T13:29:11.342Z,7.30
2023-04-06T13:31:38.929Z,6.63
2023-04-06T13:34:06.202Z,7.30
2023-04-06T13:36:33.321Z,7.85
2023-04-06T13:39:00.244Z,7.15
2023-04-06T13:41:27.506Z,5.93
2023-04-06T13:43:54.655Z,5.47
2023-04-06T13:46:21.585Z,6.70
2023-04-06T13:48:48.934Z,7.25
2023-04-06T13:51:16.278Z,6.93
2023-04-06T13:53:43.039Z,7.10
2023-04-06T13:56:09.704Z,8.05
2023-04-06T13:58:37.229Z,6.30
2023-04-06T14:01:10.503Z,5.95
2023-04-06T14:03:38.158Z,5.95
2023-04-06T14:06:29.619Z,6.20
2023-04-06T14:08:57.987Z,6.03
2023-04-06T14:11:25.198Z,6.15
2023-04-06T14:13:52.039Z,6.38
2023-04-06T14:16:20.626Z,6.55
2023-04-06T14:18:47.514Z,7.05
2023-04-06T14:21:14.306Z,6.05
2023-04-06T14:23:41.319Z,6.38
2023-04-06T14:26:09.532Z,6.50
2023-04-06T14:28:37.345Z,6.30
2023-04-06T14:31:16.128Z,6.47
2023-04-06T14:33:43.617Z,5.97
2023-04-06T14:36:10.675Z,5.97
2023-04-06T14:38:37.458Z,5.35
2023-04-06T14:41:04.130Z,6.63
2023-04-06T14:43:31.497Z,5.55
2023-04-06T14:46:02.467Z,6.28
2023-04-06T14:48:29.594Z,6.30
2023-04-06T14:50:57.441Z,6.05
2023-04-06T14:53:25.353Z,5.88
2023-04-06T14:55:52.530Z,5.70
2023-04-06T14:58:20.420Z,5.28
2023-04-06T15:00:47.527Z,5.15
2023-04-06T15:03:14.706Z,4.22
2023-04-06T15:05:42.064Z,4.60
2023-04-06T15:08:13.187Z,4.25
2023-04-06T15:10:40.491Z,5.07
2023-04-06T15:13:07.584Z,4.75
2023-04-06T15:15:34.686Z,4.03
2023-04-06T15:18:03.473Z,4.53
2023-04-06T15:20:31.405Z,4.57
2023-04-06T15:22:58.472Z,4.70
2023-04-06T15:25:25.699Z,4.35
2023-04-06T15:27:52.828Z,4.60
2023-04-06T15:30:19.867Z,3.67
2023-04-06T15:32:54.816Z,3.88
2023-04-06T15:35:22.257Z,4.40
2023-04-06T15:37:50.072Z,4.20
2023-04-06T15:40:17.127Z,4.38
2023-04-06T15:42:44.299Z,4.00
2023-04-06T15:45:12.141Z,4.85
2023-04-06T15:47:39.623Z,4.45
2023-04-06T15:50:07.293Z,4.70
2023-04-06T15:52:34.417Z,5.03
2023-04-06T15:55:02.025Z,4.97
2023-04-06T15:57:29.163Z,4.90
2023-04-06T15:59:56.279Z,4.85
2023-04-06T16:02:23.816Z,4.68
2023-04-06T16:04:54.987Z,4.93
2023-04-06T16:07:22.095Z,5.03
2023-04-06T16:09:49.105Z,5.88
2023-04-06T16:12:16.351Z,4.43
2023-04-06T16:14:43.358Z,5.70
2023-04-06T16:17:10.582Z,5.43
2023-04-06T16:19:37.624Z,4.57
2023-04-06T16:22:04.793Z,5.38
2023-04-06T16:24:34.106Z,5.10
2023-04-06T16:27:01.158Z,6.25
2023-04-06T16:29:28.591Z,5.38
2023-04-06T16:31:55.824Z,5.70
2023-04-06T16:34:22.987Z,6.22
2023-04-06T16:36:50.420Z,5.72
2023-04-06T16:39:17.557Z,5.38
2023-04-06T16:41:44.563Z,5.03
2023-04-06T16:44:13.009Z,5.00
2023-04-06T16:46:40.148Z,6.60
2023-04-06T16:49:07.283Z,5.55
2023-04-06T16:51:34.500Z,7.10
2023-04-06T16:54:02.647Z,5.90
2023-04-06T16:56:29.798Z,5.38
2023-04-06T16:58:56.808Z,5.50
2023-04-06T17:01:27.737Z,5.28
2023-04-06T17:03:55.461Z,5.20
2023-04-06T17:06:23.211Z,5.88
2023-04-06T17:08:51.153Z,5.28
2023-04-06T17:11:21.920Z,5.63
2023-04-06T17:13:52.727Z,5.80
2023-04-06T17:16:20.839Z,5.70
2023-04-06T17:18:47.564Z,6.05
2023-04-06T17:21:14.489Z,5.75
2023-04-06T17:23:41.482Z,5.65
2023-04-06T17:26:08.471Z,7.72
2023-04-06T17:28:35.590Z,6.45
2023-04-06T17:31:02.649Z,5.60
2023-04-06T17:33:32.393Z,9.38
2023-04-06T17:35:59.545Z,8.75
2023-04-06T17:38:26.388Z,11.15
2023-04-06T17:40:53.016Z,9.57
2023-04-06T17:43:19.741Z,15.80
2023-04-06T17:45:50.892Z,12.57
2023-04-06T17:48:17.944Z,6.32
2023-04-06T17:50:45.357Z,10.55
2023-04-06T17:53:12.228Z,8.55
2023-04-06T17:55:38.971Z,9.18
2023-04-06T17:58:05.945Z,5.75
2023-04-06T18:00:32.664Z,6.25
2023-04-06T18:02:59.384Z,6.72
2023-04-06T18:05:28.994Z,7.82
2023-04-06T18:07:55.823Z,7.90
2023-04-06T18:10:23.106Z,6.25
2023-04-06T18:12:49.938Z,7.82
2023-04-06T18:15:17.047Z,8.40
2023-04-06T18:17:45.460Z,7.53
2023-04-06T18:20:14.173Z,7.00
2023-04-06T18:22:44.723Z,6.15
2023-04-06T18:25:12.801Z,7.00
2023-04-06T18:27:39.621Z,7.10
2023-04-06T18:30:06.810Z,6.72
2023-04-06T18:32:33.569Z,13.60
2023-04-06T18:35:00.467Z,8.07
2023-04-06T18:37:27.131Z,7.32
2023-04-06T18:39:54.558Z,7.28
2023-04-06T18:42:21.334Z,6.15
2023-04-06T18:44:48.682Z,6.53
2023-04-06T18:47:15.669Z,7.10
2023-04-06T18:49:42.912Z,6.55
2023-04-06T18:52:10.081Z,6.20
2023-04-06T18:54:37.032Z,6.25
2023-04-06T18:57:04.744Z,6.63
2023-04-06T18:59:31.660Z,6.65
2023-04-06T19:01:59.278Z,6.22
2023-04-06T19:04:26.994Z,6.40
2023-04-06T19:06:55.272Z,7.35
2023-04-06T19:09:21.895Z,6.30
2023-04-06T19:11:48.978Z,6.10
2023-04-06T19:14:16.005Z,7.63
2023-04-06T19:16:51.725Z,7.60
2023-04-06T19:19:19.354Z,11.20
2023-04-06T19:21:46.609Z,9.93
2023-04-06T19:24:13.676Z,10.15
2023-04-06T19:26:42.386Z,9.98
2023-04-06T19:29:10.057Z,9.48
2023-04-06T19:31:37.381Z,8.45
2023-04-06T19:34:04.810Z,10.43
2023-04-06T19:36:32.465Z,11.70
2023-04-06T19:38:59.868Z,10.30
2023-04-06T19:41:27.387Z,8.73
2023-04-06T19:43:54.247Z,10.32
2023-04-06T19:46:21.629Z,10.73
2023-04-06T19:48:48.386Z,10.20
2023-04-06T19:51:15.046Z,10.50
2023-04-06T19:53:41.742Z,10.32
2023-04-06T19:56:10.053Z,10.38
2023-04-06T19:58:38.045Z,10.35
2023-04-06T20:01:05.057Z,10.20
2023-04-06T20:03:32.370Z,11.70
2023-04-06T20:05:59.421Z,11.45
2023-04-06T20:08:26.093Z,11.50
2023-04-06T20:10:52.750Z,11.65
2023-04-06T20:13:20.834Z,11.60
2023-04-06T20:15:47.604Z,11.18
2023-04-06T20:18:14.216Z,12.05
2023-04-06T20:20:40.983Z,12.27
2023-04-06T20:23:07.678Z,13.63
2023-04-06T20:25:34.346Z,12.27
2023-04-06T20:28:01.059Z,13.40
2023-04-06T20:30:27.788Z,12.38
2023-04-06T20:32:54.649Z,12.25
2023-04-06T20:35:21.435Z,11.98
2023-04-06T20:37:48.259Z,14.27
2023-04-06T20:40:14.956Z,13.40
2023-04-06T20:42:41.827Z,12.40
2023-04-06T20:45:09.286Z,12.05
2023-04-06T20:47:35.894Z,14.00
2023-04-06T20:50:02.708Z,14.35
2023-04-06T20:52:29.321Z,13.93
2023-04-06T20:54:56.354Z,12.75
2023-04-06T20:57:24.215Z,13.02
2023-04-06T20:59:50.944Z,12.55
2023-04-06T21:02:17.977Z,13.45
2023-04-06T21:04:45.250Z,12.95
2023-04-06T21:07:12.130Z,12.00
2023-04-06T21:09:40.392Z,11.55
2023-04-06T21:12:07.904Z,12.23
2023-04-06T21:14:34.901Z,10.82
2023-04-06T21:17:01.674Z,11.32
2023-04-06T21:19:28.308Z,11.27
2023-04-06T21:21:54.993Z,10.85
2023-04-06T21:24:21.658Z,11.85
2023-04-06T21:26:48.297Z,11.18
2023-04-06T21:29:14.890Z,11.75
2023-04-06T21:31:42.370Z,10.57
2023-04-06T21:34:10.859Z,11.23
2023-04-06T21:36:38.261Z,11.07
2023-04-06T21:39:06.092Z,9.95
2023-04-06T21:41:33.724Z,10.88
2023-04-06T21:44:00.604Z,10.45
2023-04-06T21:46:27.288Z,10.13
2023-04-06T21:48:53.932Z,10.07
2023-04-06T21:51:22.186Z,10.27
2023-04-06T21:53:49.361Z,10.85
2023-04-06T21:56:22.938Z,10.73
2023-04-06T21:58:50.512Z,10.68
2023-04-06T22:01:17.536Z,11.10
2023-04-06T22:03:46.110Z,12.50
2023-04-06T22:06:13.137Z,10.00
2023-04-06T22:08:39.822Z,11.45
2023-04-06T22:11:11.642Z,10.50
2023-04-06T22:13:38.946Z,11.32
2023-04-06T22:16:06.360Z,11.23
2023-04-06T22:18:33.513Z,11.90
2023-04-06T22:21:00.989Z,10.25
2023-04-06T22:23:27.683Z,10.80
2023-04-06T22:25:54.345Z,9.77
2023-04-06T22:28:20.990Z,10.00
2023-04-06T22:30:48.124Z,10.90
2023-04-06T22:33:15.065Z,10.25
2023-04-06T22:35:41.861Z,10.48
2023-04-06T22:38:08.598Z,9.07
2023-04-06T22:40:35.509Z,10.48
2023-04-06T22:43:02.213Z,9.88
2023-04-06T22:45:28.918Z,10.05
2023-04-06T22:47:55.681Z,10.40
2023-04-06T22:50:22.478Z,9.70
2023-04-06T22:52:49.249Z,8.88
2023-04-06T22:55:16.217Z,8.85
2023-04-06T22:57:42.817Z,10.07
2023-04-06T23:00:09.980Z,8.98
2023-04-06T23:02:37.062Z,8.57
2023-04-06T23:05:03.812Z,8.95
2023-04-06T23:07:32.481Z,8.98
2023-04-06T23:09:59.389Z,8.23
2023-04-06T23:12:26.288Z,8.00
2023-04-06T23:14:53.084Z,7.40
2023-04-06T23:17:19.726Z,7.60
2023-04-06T23:19:46.332Z,7.72
2023-04-06T23:22:13.156Z,7.57
2023-04-06T23:24:39.761Z,8.02
2023-04-06T23:27:06.479Z,7.53
2023-04-06T23:29:33.545Z,8.68
2023-04-06T23:32:01.090Z,8.07
2023-04-06T23:34:28.113Z,6.85
2023-04-06T23:36:55.350Z,7.43
2023-04-06T23:39:22.417Z,7.68
2023-04-06T23:41:49.457Z,7.03
2023-04-06T23:44:16.538Z,6.90
2023-04-06T23:46:43.601Z,7.20
2023-04-06T23:49:10.714Z,7.00
2023-04-06T23:51:37.719Z,6.72
2023-04-06T23:54:04.959Z,6.25
2023-04-06T23:56:31.654Z,7.10
2023-04-06T23:58:58.426Z,6.55
